createdAt,value
2023-03-18T00:01:09.799Z,6.79
2023-03-18T00:06:33.527Z,6.63
2023-03-18T00:11:57.172Z,6.53
2023-03-18T00:17:18.846Z,6.48
2023-03-18T00:23:18.118Z,6.42
2023-03-18T00:29:10.547Z,6.41
2023-03-18T00:34:31.367Z,6.37
2023-03-18T00:40:30.851Z,6.40
2023-03-18T00:45:57.010Z,6.29
2023-03-18T00:51:48.451Z,6.25
2023-03-18T00:57:39.479Z,6.15
2023-03-18T01:03:39.415Z,6.13
2023-03-18T01:09:01.475Z,6.06
2023-03-18T01:14:50.159Z,5.98
2023-03-18T01:20:45.524Z,5.93
2023-03-18T01:26:07.678Z,5.83
2023-03-18T01:31:29.880Z,5.74
2023-03-18T01:37:11.939Z,5.71
2023-03-18T01:43:38.788Z,5.60
2023-03-18T01:50:12.326Z,5.46
2023-03-18T01:55:33.574Z,5.37
2023-03-18T02:01:07.333Z,5.38
2023-03-18T02:06:29.561Z,5.36
2023-03-18T02:11:58.767Z,5.32
2023-03-18T02:17:24.654Z,5.25
2023-03-18T02:22:50.793Z,5.22
2023-03-18T02:28:14.534Z,5.12
2023-03-18T02:34:03.519Z,5.09
2023-03-18T02:40:36.780Z,5.06
2023-03-18T02:46:23.402Z,5.01
2023-03-18T02:51:46.597Z,4.93
2023-03-18T02:58:10.431Z,4.84
2023-03-18T03:03:44.017Z,4.74
2023-03-18T03:09:36.620Z,4.64
2023-03-18T03:15:27.665Z,4.59
2023-03-18T03:22:00.885Z,4.56
2023-03-18T03:27:50.633Z,4.50
2023-03-18T03:34:50.471Z,4.50
2023-03-18T03:40:43.584Z,4.53
2023-03-18T03:46:37.734Z,4.45
2023-03-18T03:53:31.417Z,4.42
2023-03-18T03:59:00.404Z,4.32
2023-03-18T04:05:58.492Z,4.28
2023-03-18T04:11:50.861Z,4.24
2023-03-18T04:17:40.971Z,4.19
2023-03-18T04:23:03.771Z,4.10
2023-03-18T04:29:03.772Z,4.08
2023-03-18T04:34:53.256Z,4.13
2023-03-18T04:40:50.658Z,4.08
2023-03-18T04:47:13.833Z,4.07
2023-03-18T04:53:35.933Z,4.11
2023-03-18T04:59:27.686Z,4.09
2023-03-18T05:04:49.832Z,4.11
2023-03-18T05:10:12.827Z,4.13
2023-03-18T05:15:37.780Z,4.18
2023-03-18T05:21:10.187Z,4.32
2023-03-18T05:27:01.767Z,4.53
2023-03-18T05:32:33.768Z,4.74
2023-03-18T05:38:38.552Z,5.01
2023-03-18T05:45:05.566Z,5.41
2023-03-18T05:50:39.663Z,5.84
2023-03-18T05:56:04.799Z,6.58
2023-03-18T06:01:30.865Z,7.47
2023-03-18T06:07:28.016Z,8.67
2023-03-18T06:13:06.713Z,9.00
2023-03-18T06:18:36.695Z,9.69
2023-03-18T06:24:04.882Z,10.81
2023-03-18T06:29:33.750Z,11.97
2023-03-18T06:35:02.220Z,12.17
2023-03-18T06:40:25.506Z,11.74
2023-03-18T06:45:59.688Z,10.75
2023-03-18T06:51:21.837Z,10.19
2023-03-18T06:57:12.084Z,10.28
2023-03-18T07:02:33.586Z,10.46
2023-03-18T07:07:55.729Z,11.12
2023-03-18T07:13:19.156Z,11.59
2023-03-18T07:18:40.549Z,11.97
2023-03-18T07:24:01.758Z,12.15
2023-03-18T07:29:25.048Z,12.07
2023-03-18T07:34:48.084Z,11.97
2023-03-18T07:40:10.139Z,12.25
2023-03-18T07:45:31.167Z,12.74
2023-03-18T07:50:54.729Z,14.02
2023-03-18T07:56:43.451Z,15.39
2023-03-18T08:02:33.908Z,15.01
2023-03-18T08:08:22.976Z,15.95
2023-03-18T08:13:44.791Z,16.70
2023-03-18T08:19:06.402Z,18.90
2023-03-18T08:24:27.705Z,19.76
2023-03-18T08:29:49.904Z,21.32
2023-03-18T08:35:11.593Z,21.51
2023-03-18T08:40:34.800Z,20.80
2023-03-18T08:45:56.114Z,21.93
2023-03-18T08:51:17.400Z,22.46
2023-03-18T08:56:38.345Z,22.20
2023-03-18T09:01:59.112Z,22.23
2023-03-18T09:07:19.849Z,24.07
2023-03-18T09:12:42.292Z,30.13
2023-03-18T09:18:11.556Z,32.95
2023-03-18T09:23:34.414Z,34.03
2023-03-18T09:28:56.023Z,33.22
2023-03-18T09:34:16.919Z,33.23
2023-03-18T09:39:38.117Z,35.62
2023-03-18T09:45:00.871Z,35.23
2023-03-18T09:50:24.745Z,35.17
2023-03-18T09:56:01.062Z,32.75
2023-03-18T10:01:23.203Z,28.35
2023-03-18T10:06:44.209Z,26.42
2023-03-18T10:12:35.705Z,26.52
2023-03-18T10:18:29.536Z,27.03
2023-03-18T10:24:27.847Z,29.09
2023-03-18T10:30:04.301Z,28.92
2023-03-18T10:35:38.893Z,29.32
2023-03-18T10:40:59.924Z,31.13
2023-03-18T10:46:22.040Z,32.69
2023-03-18T10:52:06.294Z,29.76
2023-03-18T10:57:27.760Z,30.35
2023-03-18T11:02:48.868Z,27.95
2023-03-18T11:08:10.502Z,24.50
2023-03-18T11:13:31.643Z,23.26
2023-03-18T11:18:52.831Z,21.81
2023-03-18T11:24:36.169Z,20.28
2023-03-18T11:29:59.100Z,20.16
2023-03-18T11:35:34.038Z,19.82
2023-03-18T11:41:13.476Z,19.29
2023-03-18T11:46:46.946Z,19.17
2023-03-18T11:52:32.069Z,18.80
2023-03-18T11:58:11.411Z,18.99
2023-03-18T12:04:10.010Z,18.92
2023-03-18T12:09:39.646Z,19.23
2023-03-18T12:15:05.549Z,19.30
2023-03-18T12:20:40.402Z,19.24
2023-03-18T12:26:12.124Z,18.65
2023-03-18T12:32:11.181Z,18.47
2023-03-18T12:37:43.471Z,18.23
2023-03-18T12:43:34.069Z,18.34
2023-03-18T12:49:06.224Z,18.46
2023-03-18T12:54:30.733Z,18.53
2023-03-18T13:00:01.876Z,18.02
2023-03-18T13:05:27.612Z,17.79
2023-03-18T13:10:54.156Z,18.24
2023-03-18T13:16:14.997Z,18.15
2023-03-18T13:21:40.357Z,17.95
2023-03-18T13:27:37.448Z,17.92
2023-03-18T13:32:58.283Z,17.93
2023-03-18T13:38:31.128Z,17.70
2023-03-18T13:43:51.985Z,17.39
2023-03-18T13:49:17.761Z,16.84
2023-03-18T13:54:39.279Z,16.77
2023-03-18T14:00:27.426Z,16.71
2023-03-18T14:06:04.103Z,16.57
2023-03-18T14:11:26.597Z,16.43
2023-03-18T14:16:53.399Z,16.80
2023-03-18T14:22:28.503Z,17.08
2023-03-18T14:27:55.069Z,16.69
2023-03-18T14:33:19.025Z,16.35
2023-03-18T14:39:08.963Z,16.36
2023-03-18T14:44:52.976Z,16.54
2023-03-18T14:50:17.159Z,16.67
2023-03-18T14:55:38.154Z,16.82
2023-03-18T15:01:38.088Z,16.79
2023-03-18T15:07:01.077Z,16.71
2023-03-18T15:13:02.109Z,16.34
2023-03-18T15:18:29.407Z,16.12
2023-03-18T15:23:51.944Z,15.98
2023-03-18T15:29:29.864Z,15.77
2023-03-18T15:34:56.124Z,15.63
2023-03-18T15:40:33.366Z,15.59
2023-03-18T15:45:59.850Z,15.35
2023-03-18T15:51:25.389Z,15.03
2023-03-18T15:56:48.724Z,14.85
2023-03-18T16:02:12.088Z,14.69
2023-03-18T16:07:33.223Z,14.54
2023-03-18T16:12:56.482Z,14.44
2023-03-18T16:18:18.197Z,14.25
2023-03-18T16:23:38.976Z,14.09
2023-03-18T16:29:01.703Z,14.00
2023-03-18T16:34:23.364Z,13.85
2023-03-18T16:39:43.873Z,13.68
2023-03-18T16:45:17.411Z,13.50
2023-03-18T16:50:48.449Z,13.24
2023-03-18T16:56:14.078Z,13.02
2023-03-18T17:01:37.400Z,12.81
2023-03-18T17:07:01.734Z,12.67
2023-03-18T17:12:22.778Z,12.48
2023-03-18T17:17:47.388Z,12.36
2023-03-18T17:23:49.285Z,12.17
2023-03-18T17:37:18.008Z,11.85
2023-03-18T17:42:38.922Z,11.75
2023-03-18T17:48:25.190Z,11.65
2023-03-18T17:53:48.195Z,11.57
2023-03-18T17:59:14.686Z,11.53
2023-03-18T18:04:41.350Z,11.52
2023-03-18T18:10:02.797Z,11.45
2023-03-18T18:15:56.134Z,11.35
2023-03-18T18:21:21.417Z,11.27
2023-03-18T18:27:44.184Z,11.17
2023-03-18T18:33:06.476Z,11.13
2023-03-18T18:38:55.708Z,11.07
2023-03-18T18:44:45.404Z,10.97
2023-03-18T18:50:36.790Z,10.89
2023-03-18T18:56:15.175Z,10.82
2023-03-18T19:01:36.265Z,10.73
2023-03-18T19:06:57.041Z,10.66
2023-03-18T19:12:52.588Z,10.60
2023-03-18T19:26:15.802Z,10.50
2023-03-18T19:32:07.154Z,10.43
2023-03-18T19:45:56.474Z,10.27
2023-03-18T19:51:17.434Z,10.21
2023-03-18T19:57:11.696Z,10.06
2023-03-18T20:03:01.793Z,9.96
2023-03-18T20:09:00.956Z,9.90
2023-03-18T20:14:51.765Z,9.85
2023-03-18T20:20:55.849Z,9.76
2023-03-18T20:26:21.297Z,9.69
2023-03-18T20:32:10.363Z,9.63
2023-03-18T20:45:53.019Z,9.38
2023-03-18T20:51:41.755Z,9.32
2023-03-18T20:57:34.530Z,9.30
2023-03-18T21:03:30.684Z,9.22
2023-03-18T21:08:51.318Z,9.15
2023-03-18T21:14:15.432Z,9.11
2023-03-18T21:19:36.397Z,9.03
2023-03-18T21:24:57.342Z,8.85
2023-03-18T21:30:19.466Z,8.72
2023-03-18T21:35:40.249Z,8.68
2023-03-18T21:41:01.688Z,8.64
2023-03-18T21:46:24.542Z,8.55
2023-03-18T21:51:45.699Z,8.52
2023-03-18T21:57:08.386Z,8.44
2023-03-18T22:02:31.502Z,8.37
2023-03-18T22:07:52.510Z,8.35
2023-03-18T22:13:26.106Z,8.27
2023-03-18T22:18:47.524Z,8.18
2023-03-18T22:24:12.902Z,8.11
2023-03-18T22:29:33.597Z,8.11
2023-03-18T22:34:54.828Z,8.08
2023-03-18T22:40:18.418Z,7.99
2023-03-18T22:45:40.817Z,7.96
2023-03-18T22:51:01.785Z,7.95
2023-03-18T22:56:22.884Z,8.02
2023-03-18T23:01:44.656Z,8.00
2023-03-18T23:07:06.037Z,7.98
2023-03-18T23:12:27.650Z,8.02
2023-03-18T23:17:48.355Z,8.04
2023-03-18T23:23:09.468Z,8.01
2023-03-18T23:28:30.123Z,8.06
2023-03-18T23:33:51.004Z,8.00
2023-03-18T23:39:11.670Z,7.97
2023-03-18T23:44:32.397Z,7.91
2023-03-18T23:49:53.161Z,7.89
2023-03-18T23:55:32.576Z,7.88
